createdAt,value
2023-02-11T00:00:32.123Z,7.24
2023-02-11T00:01:32.304Z,7.68
2023-02-11T00:02:32.488Z,8.86
2023-02-11T00:03:32.740Z,9.45
2023-02-11T00:04:32.797Z,8.06
2023-02-11T00:05:33.162Z,7.41
2023-02-11T00:06:33.150Z,7.19
2023-02-11T00:07:33.314Z,7.72
2023-02-11T00:08:33.462Z,6.82
2023-02-11T00:09:33.626Z,6.80
2023-02-11T00:10:33.810Z,6.91
2023-02-11T00:11:33.987Z,6.80
2023-02-11T00:12:34.144Z,7.75
2023-02-11T00:13:34.303Z,7.26
2023-02-11T00:14:34.427Z,8.04
2023-02-11T00:15:34.588Z,7.53
2023-02-11T00:16:34.767Z,7.32
2023-02-11T00:18:35.660Z,7.10
2023-02-11T00:19:35.191Z,6.31
2023-02-11T00:20:35.355Z,5.64
2023-02-11T00:21:35.510Z,6.11
2023-02-11T00:22:35.667Z,5.00
2023-02-11T00:23:35.834Z,5.15
2023-02-11T00:24:35.964Z,5.21
2023-02-11T00:25:36.101Z,5.34
2023-02-11T00:26:36.256Z,5.45
2023-02-11T00:27:36.447Z,5.82
2023-02-11T00:28:36.611Z,6.24
2023-02-11T00:29:36.788Z,7.90
2023-02-11T01:02:45.465Z,5.04
2023-02-11T01:03:45.796Z,6.54
2023-02-11T01:04:47.156Z,6.40
2023-02-11T01:05:46.306Z,5.82
2023-02-11T01:06:46.436Z,5.85
2023-02-11T01:07:46.562Z,5.96
2023-02-11T01:08:46.734Z,5.21
2023-02-11T01:09:46.880Z,6.49
2023-02-11T01:10:47.024Z,5.93
2023-02-11T01:11:47.173Z,4.80
2023-02-11T01:12:47.326Z,4.14
2023-02-11T01:13:47.513Z,4.85
2023-02-11T01:14:47.696Z,4.43
2023-02-11T01:15:48.163Z,4.81
2023-02-11T01:16:48.025Z,3.97
2023-02-11T01:17:48.195Z,4.70
2023-02-11T01:18:48.343Z,4.91
2023-02-11T02:02:55.155Z,3.45
2023-02-11T02:03:55.358Z,4.38
2023-02-11T02:58:05.289Z,3.02
2023-02-11T02:59:05.459Z,3.17
2023-02-11T03:00:05.645Z,2.95
2023-02-11T03:01:05.883Z,3.50
2023-02-11T03:02:05.992Z,2.71
2023-02-11T03:03:06.184Z,3.26
2023-02-11T03:04:06.513Z,3.65
2023-02-11T03:05:06.567Z,2.99
2023-02-11T03:06:06.746Z,2.89
2023-02-11T03:07:06.933Z,3.22
2023-02-11T03:08:07.114Z,2.72
2023-02-11T03:52:15.330Z,4.50
2023-02-11T03:53:15.519Z,5.26
2023-02-11T03:54:15.734Z,5.95
2023-02-11T04:37:25.287Z,2.07
2023-02-11T04:38:25.588Z,2.56
2023-02-11T04:39:25.896Z,2.70
2023-02-11T04:40:26.205Z,2.81
2023-02-11T04:41:26.503Z,2.68
2023-02-11T04:42:27.173Z,3.11
2023-02-11T04:43:26.984Z,3.09
2023-02-11T04:44:27.197Z,3.59
2023-02-11T04:45:27.390Z,3.79
2023-02-11T04:46:27.703Z,2.92
2023-02-11T04:47:27.824Z,2.65
2023-02-11T04:48:28.023Z,2.28
2023-02-11T04:49:28.181Z,2.08
2023-02-11T04:50:28.342Z,2.47
2023-02-11T04:51:28.523Z,2.68
2023-02-11T04:52:28.683Z,2.61
2023-02-11T04:53:28.819Z,2.06
2023-02-11T04:54:28.985Z,2.21
2023-02-11T04:55:29.123Z,2.60
2023-02-11T04:56:29.302Z,2.94
2023-02-11T04:57:29.443Z,2.80
2023-02-11T04:58:29.588Z,2.63
2023-02-11T04:59:29.724Z,2.26
2023-02-11T05:00:29.890Z,2.70
2023-02-11T05:01:30.068Z,2.38
2023-02-11T05:02:30.166Z,2.95
2023-02-11T05:03:30.331Z,2.49
2023-02-11T05:04:30.525Z,2.71
2023-02-11T05:05:30.610Z,4.33
2023-02-11T05:06:30.803Z,4.60
2023-02-11T05:07:30.999Z,4.12
2023-02-11T05:08:31.169Z,4.25
2023-02-11T05:09:31.368Z,5.30
2023-02-11T05:10:31.577Z,4.61
2023-02-11T05:11:31.756Z,3.18
2023-02-11T05:12:31.956Z,3.11
2023-02-11T05:13:33.176Z,3.43
2023-02-11T05:14:32.394Z,3.54
2023-02-11T05:15:32.575Z,3.56
2023-02-11T05:16:32.828Z,3.45
2023-02-11T05:17:32.987Z,3.67
2023-02-11T05:18:33.171Z,2.85
2023-02-11T05:19:33.389Z,3.00
2023-02-11T05:20:33.578Z,2.67
2023-02-11T05:21:33.767Z,2.92
2023-02-11T05:22:33.924Z,3.13
2023-02-11T05:23:34.076Z,3.30
2023-02-11T05:24:34.233Z,3.86
2023-02-11T05:25:34.366Z,3.62
2023-02-11T05:26:34.516Z,3.36
2023-02-11T05:27:34.659Z,3.17
2023-02-11T05:28:34.807Z,2.83
2023-02-11T05:29:34.940Z,3.15
2023-02-11T05:30:35.159Z,3.11
2023-02-11T05:31:35.260Z,3.24
2023-02-11T05:32:35.439Z,2.88
2023-02-11T05:33:35.625Z,3.70
2023-02-11T05:34:35.810Z,3.41
2023-02-11T05:35:35.980Z,3.38
2023-02-11T05:36:36.169Z,2.93
2023-02-11T05:37:36.361Z,2.80
2023-02-11T05:38:36.453Z,2.75
2023-02-11T05:39:36.599Z,3.21
2023-02-11T05:40:36.770Z,3.86
2023-02-11T05:41:36.934Z,5.86
2023-02-11T05:42:37.109Z,6.56
2023-02-11T05:43:37.334Z,7.61
2023-02-11T05:44:37.544Z,6.28
2023-02-11T05:45:37.806Z,6.98
2023-02-11T05:46:38.116Z,6.11
2023-02-11T05:47:38.303Z,5.50
2023-02-11T05:48:38.568Z,6.42
2023-02-11T05:49:38.801Z,5.41
2023-02-11T05:50:39.006Z,5.01
2023-02-11T05:51:39.220Z,5.33
2023-02-11T05:52:39.478Z,5.59
2023-02-11T05:53:39.719Z,4.18
2023-02-11T05:54:39.973Z,4.54
2023-02-11T05:55:40.191Z,5.29
2023-02-11T05:56:41.667Z,5.22
2023-02-11T05:57:40.601Z,4.05
2023-02-11T05:58:40.783Z,3.09
2023-02-11T05:59:40.965Z,2.12
2023-02-11T06:00:41.196Z,2.23
2023-02-11T06:23:45.199Z,5.80
2023-02-11T06:25:00.472Z,3.39
2023-02-11T06:25:46.444Z,3.45
2023-02-11T06:26:45.596Z,3.86
2023-02-11T06:27:45.725Z,3.65
2023-02-11T06:28:45.921Z,3.82
2023-02-11T06:29:46.019Z,3.58
2023-02-11T06:30:46.212Z,3.30
2023-02-11T06:31:46.485Z,3.30
2023-02-11T06:32:46.646Z,2.61
2023-02-11T06:33:46.547Z,2.98
2023-02-11T06:34:46.671Z,3.09
2023-02-11T06:35:46.792Z,3.34
2023-02-11T06:36:46.923Z,3.12
2023-02-11T06:37:47.067Z,4.04
2023-02-11T06:38:47.185Z,3.72
2023-02-11T06:39:47.314Z,3.52
2023-02-11T06:40:47.483Z,3.66
2023-02-11T06:41:48.171Z,3.55
2023-02-11T06:42:47.858Z,4.05
2023-02-11T06:43:48.033Z,4.47
2023-02-11T06:44:48.229Z,4.01
2023-02-11T06:45:48.768Z,4.14
2023-02-11T06:46:48.606Z,3.15
2023-02-11T06:47:48.681Z,4.51
2023-02-11T06:48:48.863Z,3.15
2023-02-11T06:49:49.046Z,3.57
2023-02-11T06:50:49.203Z,3.09
2023-02-11T06:51:49.380Z,3.35
2023-02-11T06:52:49.575Z,5.61
2023-02-11T06:53:49.813Z,6.09
2023-02-11T06:54:49.912Z,4.52
2023-02-11T06:56:50.221Z,3.67
2023-02-11T07:23:55.178Z,6.58
2023-02-11T07:24:55.359Z,6.33
2023-02-11T07:25:55.531Z,5.40
2023-02-11T07:26:55.686Z,4.21
2023-02-11T07:27:55.850Z,4.36
2023-02-11T07:28:56.030Z,4.62
2023-02-11T07:29:56.198Z,4.22
2023-02-11T07:30:56.474Z,4.56
2023-02-11T07:31:56.733Z,3.84
2023-02-11T07:32:56.977Z,3.92
2023-02-11T07:33:57.331Z,7.52
2023-02-11T07:34:57.580Z,7.95
2023-02-11T07:35:57.860Z,7.21
2023-02-11T07:36:58.028Z,5.72
2023-02-11T08:03:05.253Z,4.79
2023-02-11T08:04:05.493Z,5.52
2023-02-11T08:05:05.751Z,4.56
2023-02-11T08:06:05.999Z,4.65
2023-02-11T08:07:06.236Z,4.91
2023-02-11T08:08:06.500Z,4.64
2023-02-11T08:09:06.752Z,6.32
2023-02-11T08:42:15.219Z,9.37
2023-02-11T08:43:15.513Z,8.03
2023-02-11T08:44:15.803Z,5.64
2023-02-11T08:45:16.664Z,7.39
2023-02-11T08:46:16.360Z,5.74
2023-02-11T08:47:16.475Z,6.09
2023-02-11T08:48:16.662Z,5.73
2023-02-11T08:49:16.857Z,5.67
2023-02-11T08:50:17.041Z,4.41
2023-02-11T08:51:17.225Z,3.89
2023-02-11T08:52:17.417Z,3.59
2023-02-11T08:53:17.630Z,4.72
2023-02-11T08:54:17.814Z,4.73
2023-02-11T08:55:17.969Z,4.06
2023-02-11T08:56:18.128Z,4.09
2023-02-11T08:57:18.301Z,4.73
2023-02-11T08:58:19.246Z,4.39
2023-02-11T08:59:18.573Z,4.00
2023-02-11T09:00:18.719Z,4.71
2023-02-11T09:01:20.581Z,3.79
2023-02-11T09:02:19.986Z,4.33
2023-02-11T09:03:19.082Z,4.50
2023-02-11T09:04:19.183Z,4.66
2023-02-11T09:05:19.300Z,4.48
2023-02-11T09:06:19.404Z,4.25
2023-02-11T09:07:19.524Z,5.34
2023-02-11T09:08:19.652Z,5.03
2023-02-11T09:09:19.770Z,4.46
2023-02-11T09:10:19.894Z,5.07
2023-02-11T09:11:19.987Z,4.29
2023-02-11T09:12:20.088Z,5.12
2023-02-11T09:13:20.209Z,4.04
2023-02-11T09:14:20.378Z,8.18
2023-02-11T09:15:20.421Z,5.90
2023-02-11T09:16:20.541Z,5.91
2023-02-11T09:17:20.631Z,5.05
2023-02-11T09:18:20.755Z,6.48
2023-02-11T09:19:20.835Z,4.91
2023-02-11T09:51:25.200Z,4.96
2023-02-11T09:52:25.314Z,5.47
2023-02-11T09:53:25.429Z,4.43
2023-02-11T09:54:25.538Z,4.90
2023-02-11T09:55:25.657Z,3.72
2023-02-11T09:56:25.768Z,3.43
2023-02-11T09:57:29.074Z,3.39
2023-02-11T09:58:25.993Z,2.91
2023-02-11T09:59:26.094Z,4.26
2023-02-11T10:00:26.223Z,4.13
2023-02-11T10:01:26.320Z,5.14
2023-02-11T10:02:26.390Z,4.01
2023-02-11T10:03:26.489Z,3.80
2023-02-11T10:04:26.629Z,4.03
2023-02-11T10:05:26.731Z,2.91
2023-02-11T10:06:26.840Z,2.93
2023-02-11T11:21:35.146Z,3.70
2023-02-11T11:22:35.374Z,3.32
2023-02-11T11:23:35.619Z,3.40
2023-02-11T11:24:35.862Z,3.46
2023-02-11T11:25:36.100Z,2.88
2023-02-11T11:26:37.186Z,2.55
2023-02-11T11:27:36.389Z,2.65
2023-02-11T11:28:36.460Z,2.64
2023-02-11T11:29:36.484Z,3.05
2023-02-11T11:30:36.585Z,2.74
2023-02-11T11:31:36.779Z,2.99
2023-02-11T11:32:36.757Z,2.74
2023-02-11T11:33:36.831Z,3.31
2023-02-11T11:34:36.877Z,2.91
2023-02-11T11:35:36.930Z,2.43
2023-02-11T11:36:37.006Z,2.96
2023-02-11T11:37:37.046Z,3.37
2023-02-11T11:38:37.084Z,3.43
2023-02-11T11:39:37.157Z,4.30
2023-02-11T11:40:37.232Z,3.79
2023-02-11T11:41:37.252Z,3.61
2023-02-11T11:42:37.324Z,3.22
2023-02-11T11:43:37.392Z,3.42
2023-02-11T11:44:37.499Z,4.05
2023-02-11T11:45:37.513Z,3.35
2023-02-11T11:46:37.637Z,2.78
2023-02-11T11:47:37.642Z,3.28
2023-02-11T11:48:37.698Z,3.71
2023-02-11T11:49:37.784Z,3.61
2023-02-11T11:50:37.863Z,3.27
2023-02-11T11:51:37.921Z,3.54
2023-02-11T11:52:38.001Z,3.61
2023-02-11T11:53:38.048Z,3.87
2023-02-11T11:54:38.100Z,3.49
2023-02-11T11:55:38.177Z,3.89
2023-02-11T11:56:38.262Z,3.72
2023-02-11T11:57:38.345Z,3.78
2023-02-11T11:58:38.407Z,3.74
2023-02-11T11:59:38.493Z,3.77
2023-02-11T12:00:38.558Z,4.14
2023-02-11T12:02:38.709Z,4.00
2023-02-11T12:03:38.755Z,4.37
2023-02-11T12:04:38.821Z,3.96
2023-02-11T12:05:38.890Z,3.52
2023-02-11T12:06:39.092Z,3.41
2023-02-11T12:07:39.354Z,3.91
2023-02-11T12:08:39.534Z,3.71
2023-02-11T12:09:39.717Z,3.95
2023-02-11T12:10:40.038Z,3.53
2023-02-11T12:11:40.177Z,2.95
2023-02-11T12:12:40.403Z,3.56
2023-02-11T12:33:45.289Z,4.21
2023-02-11T12:34:45.478Z,4.39
2023-02-11T12:35:45.707Z,4.20
2023-02-11T13:20:55.265Z,4.17
2023-02-11T13:21:55.510Z,6.20
2023-02-11T13:22:55.782Z,4.58
2023-02-11T13:23:56.020Z,3.87
2023-02-11T13:24:56.170Z,3.91
2023-02-11T13:25:56.403Z,3.36
2023-02-11T13:26:56.635Z,3.33
2023-02-11T13:27:56.928Z,3.20
2023-02-11T13:28:57.056Z,2.89
2023-02-11T13:29:57.346Z,5.14
2023-02-11T13:30:57.730Z,3.78
2023-02-11T13:31:57.776Z,3.48
2023-02-11T13:32:57.939Z,3.24
2023-02-11T13:33:58.182Z,4.13
2023-02-11T13:34:58.399Z,3.83
2023-02-11T13:35:58.570Z,3.47
2023-02-11T14:13:05.190Z,5.14
2023-02-11T14:14:05.363Z,4.41
2023-02-11T14:15:07.860Z,4.70
2023-02-11T14:16:05.554Z,4.69
2023-02-11T14:17:05.569Z,4.90
2023-02-11T14:18:05.553Z,4.92
2023-02-11T14:19:05.543Z,5.98
2023-02-11T14:20:05.657Z,5.71
2023-02-11T14:21:05.909Z,6.57
2023-02-11T14:22:06.055Z,5.64
2023-02-11T14:23:06.258Z,4.70
2023-02-11T14:24:06.486Z,4.51
2023-02-11T14:25:06.708Z,4.77
2023-02-11T14:26:06.891Z,4.46
2023-02-11T14:27:07.106Z,4.81
2023-02-11T14:28:07.368Z,4.72
2023-02-11T14:29:07.578Z,5.28
2023-02-11T14:30:07.741Z,5.66
2023-02-11T14:31:08.014Z,5.49
2023-02-11T14:32:08.311Z,5.56
2023-02-11T14:33:08.413Z,6.07
2023-02-11T14:34:08.595Z,5.12
2023-02-11T14:35:08.773Z,5.07
2023-02-11T14:36:09.005Z,5.96
2023-02-11T14:37:09.163Z,5.54
2023-02-11T14:38:09.325Z,5.80
2023-02-11T14:39:09.566Z,6.18
2023-02-11T14:40:09.771Z,5.03
2023-02-11T14:41:09.903Z,5.81
2023-02-11T14:42:10.113Z,5.46
2023-02-11T14:43:10.324Z,6.51
2023-02-11T14:44:10.530Z,6.15
2023-02-11T14:45:10.700Z,5.31
2023-02-11T14:46:10.965Z,5.25
2023-02-11T14:47:11.110Z,5.40
2023-02-11T14:48:11.318Z,5.17
2023-02-11T14:49:11.550Z,5.57
2023-02-11T14:50:11.693Z,6.36
2023-02-11T14:51:11.893Z,5.55
2023-02-11T14:52:12.109Z,5.07
2023-02-11T14:53:12.417Z,4.00
2023-02-11T14:54:12.742Z,5.18
2023-02-11T14:55:13.566Z,5.05
2023-02-11T14:56:12.846Z,4.74
2023-02-11T14:57:12.826Z,4.74
2023-02-11T14:58:12.842Z,4.45
2023-02-11T14:59:12.843Z,4.84
2023-02-11T15:00:13.027Z,4.70
2023-02-11T15:01:13.256Z,4.23
2023-02-11T15:02:13.455Z,5.35
2023-02-11T15:03:13.650Z,5.62
2023-02-11T15:04:13.876Z,6.57
2023-02-11T15:05:14.078Z,5.70
2023-02-11T15:06:14.304Z,5.65
2023-02-11T15:07:14.522Z,6.08
2023-02-11T15:08:14.760Z,5.35
2023-02-11T15:09:15.022Z,5.69
2023-02-11T15:10:15.278Z,5.62
2023-02-11T15:11:15.463Z,5.66
2023-02-11T15:12:15.716Z,5.26
2023-02-11T15:13:15.974Z,5.35
2023-02-11T15:14:16.244Z,5.74
2023-02-11T15:15:16.448Z,5.45
2023-02-11T15:16:16.758Z,5.59
2023-02-11T15:17:16.927Z,5.56
2023-02-11T15:18:17.215Z,5.87
2023-02-11T15:19:17.407Z,6.21
2023-02-11T15:20:17.673Z,5.35
2023-02-11T15:21:17.929Z,5.70
2023-02-11T15:22:18.207Z,6.03
2023-02-11T15:23:18.487Z,6.14
2023-02-11T15:24:18.648Z,5.64
2023-02-11T15:25:18.898Z,6.17
2023-02-11T15:52:25.280Z,7.12
2023-02-11T15:53:25.537Z,6.65
2023-02-11T15:54:25.792Z,6.75
2023-02-11T15:55:25.980Z,7.20
2023-02-11T15:56:26.194Z,6.95
2023-02-11T15:57:26.417Z,6.54
2023-02-11T15:58:26.744Z,7.20
2023-02-11T15:59:26.903Z,7.29
2023-02-11T16:00:27.174Z,6.42
2023-02-11T16:01:27.476Z,6.13
2023-02-11T16:02:27.634Z,5.33
2023-02-11T16:45:35.413Z,11.08
2023-02-11T16:46:35.678Z,10.92
2023-02-11T16:47:35.915Z,11.00
2023-02-11T16:48:36.157Z,11.12
2023-02-11T16:49:36.423Z,11.53
2023-02-11T16:50:36.683Z,10.61
2023-02-11T16:51:36.930Z,11.17
2023-02-11T16:52:37.177Z,9.99
2023-02-11T16:53:37.459Z,11.13
2023-02-11T16:54:37.729Z,9.42
2023-02-11T16:55:38.826Z,9.79
2023-02-11T16:56:38.017Z,10.40
2023-02-11T16:57:38.090Z,8.58
2023-02-11T16:58:38.173Z,8.10
2023-02-11T16:59:38.234Z,7.50
2023-02-11T17:00:38.339Z,7.15
2023-02-11T17:01:38.379Z,6.30
2023-02-11T17:02:38.459Z,6.47
2023-02-11T17:03:38.536Z,5.73
2023-02-11T17:04:38.671Z,5.68
2023-02-11T17:05:54.330Z,5.69
2023-02-11T17:06:39.690Z,5.95
2023-02-11T17:07:38.704Z,6.32
2023-02-11T17:08:38.721Z,5.87
2023-02-11T17:09:39.259Z,5.77
2023-02-11T17:10:38.748Z,6.40
2023-02-11T17:11:38.760Z,6.12
2023-02-11T17:12:38.921Z,6.08
2023-02-11T17:13:39.129Z,6.05
2023-02-11T17:14:39.447Z,6.09
2023-02-11T17:15:39.662Z,5.99
2023-02-11T17:16:40.002Z,6.09
2023-02-11T17:17:40.324Z,5.90
2023-02-11T17:18:40.557Z,5.43
2023-02-11T17:19:40.765Z,5.80
2023-02-11T17:37:45.160Z,6.33
2023-02-11T17:38:45.401Z,7.52
2023-02-11T17:39:45.690Z,7.52
2023-02-11T17:40:45.929Z,7.47
2023-02-11T17:41:46.167Z,7.91
2023-02-11T17:42:46.476Z,8.16
2023-02-11T18:14:57.840Z,8.51
2023-02-11T18:15:55.195Z,7.51
2023-02-11T18:16:55.374Z,7.48
2023-02-11T18:17:55.260Z,8.71
2023-02-11T18:19:55.327Z,6.71
2023-02-11T18:20:55.366Z,6.05
2023-02-11T18:21:55.394Z,6.88
2023-02-11T18:22:55.441Z,6.91
2023-02-11T18:23:55.478Z,7.06
2023-02-11T18:24:55.545Z,6.71
2023-02-11T18:25:55.553Z,7.58
2023-02-11T18:26:55.592Z,7.87
2023-02-11T18:27:55.633Z,7.05
2023-02-11T18:28:55.664Z,7.51
2023-02-11T18:29:55.737Z,7.85
2023-02-11T18:30:55.777Z,7.52
2023-02-11T18:31:55.888Z,6.40
2023-02-11T18:32:55.835Z,7.00
2023-02-11T18:33:55.867Z,7.47
2023-02-11T18:34:55.908Z,8.44
2023-02-11T18:35:55.962Z,10.27
2023-02-11T18:36:56.752Z,13.05
2023-02-11T18:37:56.050Z,24.97
2023-02-11T18:38:56.103Z,27.56
2023-02-11T18:39:56.136Z,27.22
2023-02-11T18:40:56.176Z,27.73
2023-02-11T18:41:56.226Z,26.34
2023-02-11T18:42:56.266Z,25.27
2023-02-11T18:43:56.311Z,23.46
2023-02-11T18:44:56.361Z,20.35
2023-02-11T18:45:56.432Z,14.91
2023-02-11T18:46:56.455Z,9.92
2023-02-11T18:47:56.680Z,7.40
2023-02-11T18:48:56.927Z,9.96
2023-02-11T18:49:57.150Z,14.28
2023-02-11T18:50:57.400Z,15.77
2023-02-11T18:51:57.749Z,15.48
2023-02-11T18:52:57.988Z,15.06
2023-02-11T18:53:58.252Z,15.15
2023-02-11T18:54:58.507Z,13.39
2023-02-11T19:22:05.271Z,8.13
2023-02-11T20:02:15.266Z,12.78
2023-02-11T20:03:15.523Z,13.04
2023-02-11T20:04:15.750Z,13.43
2023-02-11T20:05:16.760Z,11.25
2023-02-11T20:06:16.059Z,9.51
2023-02-11T20:07:16.093Z,8.53
2023-02-11T20:08:16.151Z,11.32
2023-02-11T20:09:16.296Z,14.47
2023-02-11T20:10:16.265Z,13.81
2023-02-11T20:11:16.312Z,12.34
2023-02-11T20:12:16.358Z,10.44
2023-02-11T20:13:16.432Z,10.72
2023-02-11T20:14:16.473Z,11.32
2023-02-11T20:15:16.529Z,12.25
2023-02-11T20:16:16.600Z,12.59
2023-02-11T20:17:16.628Z,11.97
2023-02-11T20:18:16.752Z,11.86
2023-02-11T20:19:16.740Z,10.91
2023-02-11T20:20:16.812Z,11.22
2023-02-11T20:21:16.909Z,12.11
2023-02-11T20:22:17.286Z,12.57
2023-02-11T20:23:17.110Z,12.28
2023-02-11T20:24:17.215Z,11.20
2023-02-11T20:25:17.295Z,11.65
2023-02-11T20:26:17.399Z,11.92
2023-02-11T20:27:19.976Z,13.00
2023-02-11T20:28:17.773Z,15.15
2023-02-11T20:29:17.906Z,17.66
2023-02-11T20:30:17.954Z,23.00
2023-02-11T20:31:18.137Z,18.97
2023-02-11T20:32:18.384Z,19.43
2023-02-11T20:33:18.544Z,18.64
2023-02-11T20:34:18.784Z,17.94
2023-02-11T20:35:19.033Z,15.43
2023-02-11T20:36:19.286Z,14.33
2023-02-11T20:37:19.561Z,13.59
2023-02-11T20:38:19.816Z,12.67
2023-02-11T20:39:20.060Z,13.19
2023-02-11T20:40:20.295Z,14.14
2023-02-11T20:41:20.525Z,14.26
2023-02-11T20:42:20.760Z,14.01
2023-02-11T20:43:20.982Z,14.87
2023-02-11T20:44:21.245Z,12.53
2023-02-11T20:45:21.482Z,13.33
2023-02-11T20:46:21.740Z,13.69
2023-02-11T20:47:21.917Z,13.16
2023-02-11T20:48:22.164Z,13.90
2023-02-11T20:49:22.404Z,14.06
2023-02-11T20:50:22.786Z,13.94
2023-02-11T20:51:22.869Z,15.64
2023-02-11T20:52:23.194Z,16.60
2023-02-11T20:53:23.370Z,15.01
2023-02-11T20:54:23.589Z,14.86
2023-02-11T20:55:24.287Z,13.94
2023-02-11T20:56:23.951Z,13.52
2023-02-11T20:57:24.061Z,13.55
2023-02-11T20:58:24.186Z,14.52
2023-02-11T20:59:24.297Z,12.72
2023-02-11T21:00:24.395Z,13.79
2023-02-11T21:01:24.506Z,11.98
2023-02-11T21:02:25.024Z,11.69
2023-02-11T21:03:24.768Z,10.98
2023-02-11T21:04:24.837Z,11.49
2023-02-11T21:05:24.939Z,11.08
2023-02-11T21:06:25.060Z,12.09
2023-02-11T21:07:25.171Z,13.39
2023-02-11T21:08:25.306Z,11.76
2023-02-11T21:09:25.422Z,16.87
2023-02-11T21:10:25.547Z,17.37
2023-02-11T21:11:25.667Z,15.71
2023-02-11T21:12:25.781Z,14.30
2023-02-11T21:13:25.870Z,14.19
2023-02-11T21:14:26.278Z,13.56
2023-02-11T21:15:26.293Z,13.41
2023-02-11T21:16:26.659Z,14.48
2023-02-11T21:17:26.764Z,13.92
2023-02-11T21:18:27.010Z,14.28
2023-02-11T21:19:27.245Z,14.79
2023-02-11T21:20:27.502Z,14.53
2023-02-11T21:21:27.712Z,14.01
2023-02-11T21:22:28.037Z,13.96
2023-02-11T21:23:28.226Z,12.98
2023-02-11T21:24:28.557Z,14.55
2023-02-11T21:25:28.763Z,13.78
2023-02-11T21:26:29.075Z,14.39
2023-02-11T21:27:29.242Z,14.14
2023-02-11T21:28:29.522Z,13.13
2023-02-11T21:29:29.808Z,13.17
2023-02-11T21:30:30.020Z,12.93
2023-02-11T21:31:30.394Z,14.08
2023-02-11T21:32:30.490Z,14.16
2023-02-11T21:33:30.806Z,15.11
2023-02-11T21:34:30.982Z,13.08
2023-02-11T21:35:31.311Z,14.56
2023-02-11T21:36:31.563Z,20.48
2023-02-11T21:37:31.846Z,22.66
2023-02-11T21:38:32.034Z,18.68
2023-02-11T21:39:32.276Z,14.68
2023-02-11T21:40:32.620Z,14.97
2023-02-11T21:41:32.841Z,14.41
2023-02-11T21:50:35.246Z,15.79
2023-02-11T21:51:35.458Z,15.93
2023-02-11T21:52:35.694Z,15.74
2023-02-11T21:53:35.939Z,17.81
2023-02-11T21:54:36.191Z,16.94
2023-02-11T21:55:36.438Z,16.15
2023-02-11T21:56:36.663Z,15.59
2023-02-11T21:57:36.902Z,17.18
2023-02-11T21:58:37.126Z,17.02
2023-02-11T21:59:37.366Z,16.56
2023-02-11T22:00:37.647Z,16.94
2023-02-11T22:38:45.314Z,14.77
2023-02-11T22:39:45.558Z,15.44
2023-02-11T22:40:45.867Z,14.98
2023-02-11T22:41:46.051Z,14.30
2023-02-11T22:42:46.279Z,14.23
2023-02-11T22:43:46.501Z,14.69
2023-02-11T22:44:46.777Z,14.64
2023-02-11T22:45:47.035Z,15.68
2023-02-11T22:46:47.222Z,14.63
2023-02-11T22:47:47.491Z,13.16
2023-02-11T22:48:47.713Z,14.20
2023-02-11T22:49:47.970Z,14.12
2023-02-11T22:50:48.187Z,15.18
2023-02-11T22:51:48.805Z,14.69
2023-02-11T22:52:48.781Z,14.58
2023-02-11T22:53:48.995Z,13.25
2023-02-11T22:54:49.213Z,13.71
2023-02-11T22:55:49.434Z,13.10
2023-02-11T22:56:49.658Z,12.60
2023-02-11T22:57:49.891Z,11.72
2023-02-11T22:58:50.120Z,11.97
2023-02-11T22:59:50.364Z,13.21
2023-02-11T23:00:50.586Z,12.99
2023-02-11T23:01:50.939Z,14.43
2023-02-11T23:02:51.144Z,13.63
2023-02-11T23:03:51.296Z,13.03
2023-02-11T23:04:51.521Z,14.04
2023-02-11T23:05:51.758Z,15.18
2023-02-11T23:06:51.980Z,16.22
2023-02-11T23:07:52.225Z,14.73
2023-02-11T23:08:52.445Z,15.52
2023-02-11T23:09:52.654Z,14.64
2023-02-11T23:10:52.898Z,14.90
2023-02-11T23:11:53.135Z,15.68
2023-02-11T23:12:53.355Z,14.87
2023-02-11T23:13:53.566Z,14.21
2023-02-11T23:14:53.695Z,14.30
2023-02-11T23:15:54.364Z,13.87
2023-02-11T23:16:54.141Z,13.23
2023-02-11T23:17:54.250Z,13.34
2023-02-11T23:18:54.384Z,12.90
2023-02-11T23:19:55.284Z,13.37
2023-02-11T23:20:54.631Z,13.15
2023-02-11T23:21:54.765Z,12.37
2023-02-11T23:22:54.873Z,12.85
2023-02-11T23:23:54.995Z,11.88
2023-02-11T23:24:55.110Z,11.99
2023-02-11T23:25:55.553Z,12.40
2023-02-11T23:26:55.367Z,12.83
2023-02-11T23:27:55.509Z,11.23
2023-02-11T23:28:55.679Z,10.97
2023-02-11T23:29:55.752Z,11.48
2023-02-11T23:30:55.891Z,11.57
2023-02-11T23:31:58.725Z,11.59
2023-02-11T23:32:56.029Z,11.71
2023-02-11T23:33:56.097Z,11.85
2023-02-11T23:34:56.157Z,10.51
2023-02-11T23:35:56.555Z,11.95
2023-02-11T23:36:56.350Z,11.98
2023-02-11T23:37:56.419Z,12.75
2023-02-11T23:38:56.483Z,13.29
2023-02-11T23:39:57.293Z,13.53
2023-02-11T23:40:56.609Z,12.56
2023-02-11T23:41:56.678Z,13.24
2023-02-11T23:42:56.748Z,13.88
2023-02-11T23:43:56.801Z,12.97
2023-02-11T23:44:56.858Z,13.03
2023-02-11T23:45:57.297Z,13.24
2023-02-11T23:46:56.966Z,12.75
2023-02-11T23:47:57.040Z,13.47
2023-02-11T23:48:57.094Z,14.01
2023-02-11T23:49:59.554Z,12.41
2023-02-11T23:50:57.310Z,11.92
2023-02-11T23:51:57.441Z,13.27
2023-02-11T23:52:57.565Z,13.03
2023-02-11T23:53:57.690Z,13.21
2023-02-11T23:54:57.825Z,12.67
2023-02-11T23:55:57.935Z,12.66
2023-02-11T23:56:58.017Z,12.53
2023-02-11T23:57:58.094Z,12.82
2023-02-11T23:58:58.187Z,12.61
2023-02-11T23:59:58.295Z,12.14
